createdAt,value
2023-05-09T00:00:00.157Z,112.02
2023-05-09T00:03:06.376Z,110.20
2023-05-09T00:06:14.006Z,112.66
2023-05-09T00:09:20.185Z,112.73
2023-05-09T00:12:27.275Z,113.39
2023-05-09T00:15:36.299Z,112.85
2023-05-09T00:18:43.004Z,114.90
2023-05-09T00:21:49.482Z,115.85
2023-05-09T00:24:56.708Z,111.62
2023-05-09T00:28:02.808Z,113.23
2023-05-09T00:31:12.338Z,113.10
2023-05-09T00:34:18.416Z,115.33
2023-05-09T00:37:25.443Z,118.98
2023-05-09T00:40:36.603Z,113.09
2023-05-09T00:43:43.470Z,115.17
2023-05-09T00:46:52.441Z,116.17
2023-05-09T00:50:01.278Z,119.06
2023-05-09T00:53:13.146Z,118.76
2023-05-09T00:56:22.070Z,129.08
2023-05-09T00:59:34.557Z,133.62
2023-05-09T01:02:45.433Z,138.31
2023-05-09T01:06:01.858Z,137.08
2023-05-09T01:09:27.601Z,132.70
2023-05-09T01:12:49.555Z,128.15
2023-05-09T01:16:17.594Z,132.07
2023-05-09T01:20:00.182Z,125.55
2023-05-09T01:23:38.278Z,127.50
2023-05-09T01:27:19.020Z,129.90
2023-05-09T01:30:34.316Z,130.41
2023-05-09T01:33:45.478Z,127.82
2023-05-09T01:36:59.094Z,125.99
2023-05-09T01:40:15.500Z,130.33
2023-05-09T01:43:27.095Z,130.26
2023-05-09T01:46:37.968Z,131.75
2023-05-09T01:49:47.781Z,127.12
2023-05-09T01:53:01.379Z,126.77
2023-05-09T01:56:17.325Z,126.36
2023-05-09T01:59:33.274Z,124.36
2023-05-09T02:02:44.693Z,125.06
2023-05-09T02:05:53.796Z,129.96
2023-05-09T02:09:01.954Z,130.29
2023-05-09T02:12:08.732Z,130.24
2023-05-09T02:15:16.735Z,135.93
2023-05-09T02:18:25.351Z,135.43
2023-05-09T02:21:32.258Z,138.98
2023-05-09T02:24:39.145Z,144.01
2023-05-09T02:27:49.623Z,139.15
2023-05-09T02:31:05.024Z,136.81
2023-05-09T02:34:16.470Z,139.48
2023-05-09T02:37:24.032Z,143.19
2023-05-09T02:40:33.516Z,146.88
2023-05-09T02:43:39.459Z,147.17
2023-05-09T02:46:46.648Z,148.55
2023-05-09T02:50:01.377Z,145.49
2023-05-09T02:53:15.963Z,147.90
2023-05-09T02:56:28.662Z,149.19
2023-05-09T02:59:35.539Z,155.53
2023-05-09T03:02:42.937Z,159.92
2023-05-09T03:05:58.148Z,162.33
2023-05-09T03:09:04.160Z,166.03
2023-05-09T03:12:12.122Z,164.82
2023-05-09T03:15:24.046Z,163.01
2023-05-09T03:18:31.331Z,165.17
2023-05-09T03:21:40.030Z,164.85
2023-05-09T03:25:03.986Z,168.74
2023-05-09T03:28:09.992Z,178.04
2023-05-09T03:31:19.520Z,192.66
2023-05-09T03:34:25.439Z,185.59
2023-05-09T03:37:35.037Z,184.46
2023-05-09T03:40:41.745Z,184.99
2023-05-09T03:43:50.774Z,185.21
2023-05-09T03:46:56.632Z,194.10
2023-05-09T03:50:06.064Z,186.36
2023-05-09T03:53:15.826Z,191.49
2023-05-09T03:56:26.173Z,189.09
2023-05-09T03:59:33.120Z,184.90
2023-05-09T04:02:41.104Z,179.89
2023-05-09T04:05:50.779Z,170.35
2023-05-09T04:09:11.982Z,162.11
2023-05-09T04:12:20.630Z,168.28
2023-05-09T04:15:28.308Z,162.88
2023-05-09T04:18:36.868Z,157.87
2023-05-09T04:21:44.972Z,148.18
2023-05-09T04:24:53.548Z,139.53
2023-05-09T04:28:00.933Z,141.53
2023-05-09T04:31:07.731Z,136.07
2023-05-09T04:34:15.930Z,135.38
2023-05-09T04:37:22.319Z,136.69
2023-05-09T04:40:38.770Z,138.21
2023-05-09T04:43:44.939Z,130.05
2023-05-09T04:47:01.559Z,125.22
2023-05-09T04:50:25.489Z,123.28
2023-05-09T04:53:32.306Z,122.52
2023-05-09T04:56:42.473Z,121.62
2023-05-09T04:59:50.037Z,123.18
2023-05-09T05:02:56.224Z,117.11
2023-05-09T05:06:06.625Z,117.30
2023-05-09T05:09:14.190Z,121.48
2023-05-09T05:12:23.724Z,117.63
2023-05-09T05:15:29.865Z,114.43
2023-05-09T05:18:37.461Z,117.95
2023-05-09T05:21:44.819Z,116.93
2023-05-09T05:24:52.351Z,117.71
2023-05-09T05:28:01.620Z,121.05
2023-05-09T05:31:08.848Z,119.68
2023-05-09T05:34:16.670Z,121.54
2023-05-09T05:37:24.455Z,117.71
2023-05-09T05:40:30.437Z,116.03
2023-05-09T05:43:43.237Z,118.83
2023-05-09T05:46:49.440Z,116.82
2023-05-09T05:49:57.167Z,113.40
2023-05-09T05:53:03.696Z,112.52
2023-05-09T05:56:11.173Z,109.07
2023-05-09T05:59:20.003Z,111.05
2023-05-09T06:02:27.155Z,110.25
2023-05-09T06:05:33.961Z,104.79
2023-05-09T06:08:41.357Z,116.50
2023-05-09T06:11:47.943Z,152.36
2023-05-09T06:14:57.322Z,164.87
2023-05-09T06:18:03.712Z,1811.53
2023-05-09T06:21:11.026Z,364.56
2023-05-09T06:24:31.633Z,159.27
2023-05-09T06:27:42.042Z,150.76
2023-05-09T06:30:50.800Z,168.39
2023-05-09T06:33:57.609Z,160.36
2023-05-09T06:37:03.554Z,154.49
2023-05-09T06:40:12.582Z,148.98
2023-05-09T06:43:18.559Z,160.09
2023-05-09T06:46:28.140Z,153.50
2023-05-09T06:49:36.293Z,150.17
2023-05-09T06:52:43.721Z,155.20
2023-05-09T06:55:49.925Z,156.69
2023-05-09T06:58:56.848Z,145.05
2023-05-09T07:02:06.829Z,133.83
2023-05-09T07:05:14.059Z,139.25
2023-05-09T07:08:20.400Z,140.85
2023-05-09T07:11:27.403Z,146.24
2023-05-09T07:14:37.296Z,129.38
2023-05-09T07:17:47.069Z,299.14
2023-05-09T07:20:53.094Z,331.00
2023-05-09T07:23:59.868Z,336.33
2023-05-09T07:27:06.822Z,192.01
2023-05-09T07:30:14.896Z,129.86
2023-05-09T07:33:23.854Z,131.60
2023-05-09T07:36:30.822Z,130.87
2023-05-09T07:39:41.300Z,129.07
2023-05-09T07:42:54.421Z,122.51
2023-05-09T07:46:00.436Z,106.48
2023-05-09T07:49:09.947Z,115.29
2023-05-09T07:52:17.610Z,99.78
2023-05-09T07:55:26.539Z,108.59
2023-05-09T07:58:32.499Z,94.03
2023-05-09T08:01:39.432Z,109.56
2023-05-09T08:04:49.287Z,90.43
2023-05-09T08:07:56.097Z,102.80
2023-05-09T08:11:02.243Z,93.54
2023-05-09T08:14:09.061Z,104.73
2023-05-09T08:17:15.048Z,92.08
2023-05-09T08:20:25.996Z,102.93
2023-05-09T08:23:32.812Z,91.72
2023-05-09T08:26:39.599Z,103.14
2023-05-09T08:29:46.408Z,106.42
2023-05-09T08:32:59.507Z,102.11
2023-05-09T08:36:09.493Z,86.94
2023-05-09T08:39:16.301Z,94.40
2023-05-09T08:42:26.786Z,107.67
2023-05-09T08:45:37.170Z,107.27
2023-05-09T08:48:46.471Z,116.72
2023-05-09T08:51:56.353Z,110.66
2023-05-09T08:55:04.059Z,105.65
2023-05-09T08:58:12.774Z,115.56
2023-05-09T09:01:22.092Z,106.77
2023-05-09T09:04:29.065Z,105.49
2023-05-09T09:07:39.775Z,105.91
2023-05-09T09:10:50.254Z,108.73
2023-05-09T09:13:59.113Z,107.36
2023-05-09T09:17:09.439Z,105.71
2023-05-09T09:20:27.682Z,127.46
2023-05-09T09:23:40.982Z,122.04
2023-05-09T09:26:52.000Z,116.06
2023-05-09T09:30:14.629Z,109.11
2023-05-09T09:33:24.345Z,94.31
2023-05-09T09:36:32.737Z,95.06
2023-05-09T09:39:41.285Z,95.99
2023-05-09T09:42:50.087Z,101.76
2023-05-09T09:45:58.286Z,89.97
2023-05-09T09:49:05.208Z,98.56
2023-05-09T09:52:11.115Z,104.58
2023-05-09T09:55:27.891Z,96.39
2023-05-09T09:58:36.066Z,89.83
2023-05-09T10:02:06.106Z,94.85
2023-05-09T10:05:15.838Z,90.21
2023-05-09T10:08:22.844Z,103.04
2023-05-09T10:11:31.721Z,89.14
2023-05-09T10:14:41.553Z,112.22
2023-05-09T10:17:47.888Z,94.79
2023-05-09T10:20:56.707Z,94.25
2023-05-09T10:24:06.400Z,92.32
2023-05-09T10:27:18.825Z,101.66
2023-05-09T10:30:34.219Z,93.90
2023-05-09T10:33:49.873Z,95.08
2023-05-09T10:36:57.789Z,83.03
2023-05-09T10:40:09.595Z,97.20
2023-05-09T10:43:22.088Z,88.20
2023-05-09T10:46:31.613Z,95.73
2023-05-09T10:49:38.331Z,83.66
2023-05-09T10:53:14.482Z,95.40
2023-05-09T10:56:29.496Z,83.01
2023-05-09T10:59:44.022Z,90.49
2023-05-09T11:03:10.906Z,94.81
2023-05-09T11:06:51.388Z,89.61
2023-05-09T11:10:12.915Z,91.45
2023-05-09T11:13:23.865Z,94.06
2023-05-09T11:16:32.433Z,90.18
2023-05-09T11:19:57.031Z,97.04
2023-05-09T11:23:09.012Z,80.86
2023-05-09T11:26:18.296Z,94.15
2023-05-09T11:29:29.776Z,78.02
2023-05-09T11:32:49.391Z,91.84
2023-05-09T11:36:25.854Z,88.53
2023-05-09T11:39:33.037Z,91.59
2023-05-09T11:42:39.881Z,103.22
2023-05-09T11:45:50.046Z,97.84
2023-05-09T11:48:58.762Z,102.60
2023-05-09T11:52:05.469Z,100.45
2023-05-09T11:55:14.717Z,98.71
2023-05-09T11:58:21.999Z,97.04
2023-05-09T12:01:29.584Z,93.35
2023-05-09T12:04:39.896Z,89.18
2023-05-09T12:07:46.620Z,78.79
2023-05-09T12:10:53.846Z,89.04
2023-05-09T12:13:59.757Z,84.41
2023-05-09T12:17:06.680Z,87.56
2023-05-09T12:20:16.424Z,83.22
2023-05-09T12:23:23.692Z,78.97
2023-05-09T12:26:30.233Z,63.10
2023-05-09T12:29:38.761Z,72.69
2023-05-09T12:32:47.145Z,68.47
2023-05-09T12:36:11.598Z,64.81
2023-05-09T12:39:22.723Z,64.42
2023-05-09T12:42:31.738Z,68.97
2023-05-09T12:45:38.695Z,54.51
2023-05-09T12:48:50.626Z,64.88
2023-05-09T12:52:05.764Z,70.43
2023-05-09T12:55:17.195Z,68.76
2023-05-09T12:58:23.259Z,82.93
2023-05-09T13:01:37.959Z,80.35
2023-05-09T13:04:48.853Z,65.95
2023-05-09T13:08:00.999Z,74.87
2023-05-09T13:11:18.680Z,69.32
2023-05-09T13:14:30.372Z,73.40
2023-05-09T13:17:36.439Z,76.70
2023-05-09T13:20:43.864Z,80.26
2023-05-09T13:23:53.037Z,80.51
2023-05-09T13:26:59.833Z,86.29
2023-05-09T13:30:07.936Z,80.21
2023-05-09T13:33:25.409Z,88.22
2023-05-09T13:36:32.911Z,73.09
2023-05-09T13:39:42.357Z,88.05
2023-05-09T13:42:49.227Z,81.18
2023-05-09T13:45:56.102Z,83.38
2023-05-09T13:49:05.010Z,83.93
2023-05-09T13:52:12.406Z,77.74
2023-05-09T13:55:23.656Z,69.72
2023-05-09T13:58:30.472Z,81.21
2023-05-09T14:01:36.614Z,76.20
2023-05-09T14:04:44.317Z,84.37
2023-05-09T14:07:52.781Z,75.63
2023-05-09T14:11:04.262Z,75.04
2023-05-09T14:14:10.266Z,80.24
2023-05-09T14:17:17.268Z,80.32
2023-05-09T14:20:24.171Z,77.48
2023-05-09T14:23:32.036Z,77.53
2023-05-09T14:26:42.013Z,87.94
2023-05-09T14:29:49.753Z,98.54
2023-05-09T14:32:55.974Z,87.38
2023-05-09T14:36:05.104Z,86.51
2023-05-09T14:39:11.225Z,84.69
2023-05-09T14:42:21.082Z,81.19
2023-05-09T14:45:27.137Z,77.64
2023-05-09T14:48:34.137Z,80.39
2023-05-09T14:51:40.203Z,83.96
2023-05-09T14:54:46.968Z,83.36
2023-05-09T14:57:55.619Z,65.69
2023-05-09T15:01:03.024Z,70.88
2023-05-09T15:04:09.774Z,75.14
2023-05-09T15:07:16.508Z,83.55
2023-05-09T15:10:22.574Z,68.95
2023-05-09T15:13:32.142Z,78.37
2023-05-09T15:16:40.032Z,77.89
2023-05-09T15:19:47.263Z,84.09
2023-05-09T15:22:56.494Z,71.76
2023-05-09T15:26:03.249Z,80.12
2023-05-09T15:29:13.447Z,81.52
2023-05-09T15:32:20.724Z,86.45
2023-05-09T15:35:27.005Z,76.23
2023-05-09T15:38:33.688Z,86.20
2023-05-09T15:41:42.983Z,84.74
2023-05-09T15:44:53.172Z,83.70
2023-05-09T15:47:59.167Z,86.59
2023-05-09T15:51:06.048Z,87.32
2023-05-09T15:54:11.997Z,91.47
2023-05-09T15:57:20.123Z,91.34
2023-05-09T16:00:38.583Z,71.87
2023-05-09T16:03:45.515Z,89.93
2023-05-09T16:06:52.513Z,92.36
2023-05-09T16:10:00.253Z,91.94
2023-05-09T16:13:06.319Z,86.86
2023-05-09T16:16:16.061Z,93.29
2023-05-09T16:19:30.883Z,85.47
2023-05-09T16:22:37.795Z,89.16
2023-05-09T16:25:45.208Z,88.71
2023-05-09T16:28:52.359Z,94.66
2023-05-09T16:32:01.008Z,80.69
2023-05-09T16:35:22.753Z,87.21
2023-05-09T16:38:29.194Z,70.11
2023-05-09T16:41:36.000Z,86.90
2023-05-09T16:44:42.170Z,78.10
2023-05-09T16:47:51.726Z,90.50
2023-05-09T16:50:57.756Z,89.73
2023-05-09T16:54:09.990Z,85.21
2023-05-09T16:57:19.798Z,93.45
2023-05-09T17:00:39.961Z,87.36
2023-05-09T17:03:48.927Z,81.00
2023-05-09T17:06:55.996Z,100.28
2023-05-09T17:10:02.258Z,83.91
2023-05-09T17:13:09.701Z,90.65
2023-05-09T17:16:16.406Z,92.05
2023-05-09T17:19:28.756Z,93.14
2023-05-09T17:22:41.785Z,84.44
2023-05-09T17:25:52.242Z,85.20
2023-05-09T17:28:58.257Z,96.53
2023-05-09T17:32:07.913Z,96.36
2023-05-09T17:35:19.639Z,93.51
2023-05-09T17:38:26.540Z,90.09
2023-05-09T17:41:38.932Z,85.76
2023-05-09T17:44:47.864Z,81.46
2023-05-09T17:47:53.903Z,77.44
2023-05-09T17:51:09.934Z,91.24
2023-05-09T17:54:22.187Z,96.72
2023-05-09T17:57:29.161Z,102.83
2023-05-09T18:00:41.949Z,113.71
2023-05-09T18:03:51.196Z,100.58
2023-05-09T18:07:00.118Z,95.00
2023-05-09T18:10:15.517Z,103.58
2023-05-09T18:13:21.812Z,104.53
2023-05-09T18:16:28.711Z,107.91
2023-05-09T18:19:35.760Z,121.80
2023-05-09T18:22:45.067Z,122.54
2023-05-09T18:25:51.486Z,122.65
2023-05-09T18:28:58.422Z,111.82
2023-05-09T18:32:04.993Z,102.70
2023-05-09T18:35:12.927Z,127.86
2023-05-09T18:38:21.474Z,114.23
2023-05-09T18:41:34.259Z,105.85
2023-05-09T18:44:40.294Z,101.52
2023-05-09T18:47:47.178Z,116.61
2023-05-09T18:50:54.306Z,107.63
2023-05-09T18:54:03.839Z,114.02
2023-05-09T18:57:10.252Z,109.66
2023-05-09T19:00:19.101Z,130.88
2023-05-09T19:03:25.833Z,126.59
2023-05-09T19:06:34.946Z,110.51
2023-05-09T19:09:45.035Z,104.96
2023-05-09T19:12:52.312Z,120.91
2023-05-09T19:15:59.606Z,118.33
2023-05-09T19:19:06.440Z,108.84
2023-05-09T19:22:12.455Z,110.89
2023-05-09T19:25:22.474Z,118.20
2023-05-09T19:28:28.643Z,110.45
2023-05-09T19:31:35.428Z,125.76
2023-05-09T19:34:41.471Z,116.22
2023-05-09T19:37:50.447Z,125.33
2023-05-09T19:40:59.503Z,128.53
2023-05-09T19:44:07.552Z,117.51
2023-05-09T19:47:14.029Z,116.23
2023-05-09T19:50:21.463Z,113.73
2023-05-09T19:53:36.130Z,98.28
2023-05-09T19:56:45.577Z,112.12
2023-05-09T19:59:52.343Z,107.18
2023-05-09T20:03:02.852Z,109.59
2023-05-09T20:06:09.366Z,107.46
2023-05-09T20:09:21.116Z,119.56
2023-05-09T20:12:30.364Z,119.11
2023-05-09T20:15:37.610Z,125.24
2023-05-09T20:19:01.375Z,100.46
2023-05-09T20:22:09.242Z,123.75
2023-05-09T20:25:15.660Z,106.18
2023-05-09T20:28:25.224Z,113.72
2023-05-09T20:31:31.567Z,109.73
2023-05-09T20:34:38.454Z,227.07
2023-05-09T20:37:44.674Z,250.29
2023-05-09T20:40:51.450Z,183.81
2023-05-09T20:44:04.534Z,139.40
2023-05-09T20:47:11.812Z,126.40
2023-05-09T20:50:18.141Z,128.04
2023-05-09T20:53:26.805Z,126.23
2023-05-09T20:56:34.001Z,124.24
2023-05-09T20:59:44.393Z,130.78
2023-05-09T21:02:50.373Z,125.82
2023-05-09T21:05:57.490Z,135.69
2023-05-09T21:09:03.728Z,123.95
2023-05-09T21:12:11.393Z,121.48
2023-05-09T21:15:20.453Z,132.33
2023-05-09T21:18:27.783Z,131.56
2023-05-09T21:21:34.728Z,122.87
2023-05-09T21:24:41.400Z,128.60
2023-05-09T21:27:47.869Z,135.90
2023-05-09T21:31:00.224Z,146.39
2023-05-09T21:34:10.321Z,150.94
2023-05-09T21:37:17.208Z,154.55
2023-05-09T21:40:25.963Z,140.36
2023-05-09T21:43:32.784Z,142.61
2023-05-09T21:46:46.523Z,143.48
2023-05-09T21:49:53.469Z,141.20
2023-05-09T21:53:00.747Z,147.00
2023-05-09T21:56:08.624Z,145.35
2023-05-09T21:59:14.461Z,135.07
2023-05-09T22:02:24.026Z,143.77
2023-05-09T22:05:30.154Z,141.77
2023-05-09T22:08:36.900Z,136.48
2023-05-09T22:11:42.907Z,127.55
2023-05-09T22:14:56.329Z,132.35
2023-05-09T22:18:05.718Z,132.74
2023-05-09T22:21:12.989Z,138.05
2023-05-09T22:24:18.812Z,128.52
2023-05-09T22:27:25.654Z,135.87
2023-05-09T22:30:38.068Z,133.74
2023-05-09T22:33:47.469Z,132.50
2023-05-09T22:36:56.366Z,133.78
2023-05-09T22:40:03.732Z,138.44
2023-05-09T22:43:10.904Z,139.40
2023-05-09T22:46:17.636Z,140.06
2023-05-09T22:49:26.813Z,130.39
2023-05-09T22:52:33.568Z,141.38
2023-05-09T22:55:39.777Z,128.41
2023-05-09T22:58:46.911Z,135.55
2023-05-09T23:01:53.828Z,141.08
2023-05-09T23:05:03.553Z,155.08
2023-05-09T23:08:09.603Z,149.05
2023-05-09T23:11:16.301Z,149.79
2023-05-09T23:14:22.356Z,156.53
2023-05-09T23:17:32.081Z,139.12
2023-05-09T23:20:40.669Z,133.23
2023-05-09T23:23:47.407Z,141.21
2023-05-09T23:26:53.372Z,136.45
2023-05-09T23:30:00.223Z,136.94
2023-05-09T23:33:06.339Z,134.48
2023-05-09T23:36:15.943Z,136.99
2023-05-09T23:39:21.980Z,138.94
2023-05-09T23:42:29.161Z,136.96
2023-05-09T23:45:40.863Z,146.20
2023-05-09T23:48:47.677Z,2129.69
2023-05-09T23:51:57.292Z,6465.83
2023-05-09T23:55:04.099Z,11012.11
2023-05-09T23:58:10.115Z,3088.13
